Chicago, IL (60625)

4:48 PM CDT on June 19, 2018 (GMT -0500)
Albany Park | | Change Station
Active Advisory: Flood Advisory Active Notice: Flood Advisory

Elev 600 ft 41.97 °N, 87.71 °W | Updated 5 seconds ago

Overcast
Overcast
68.9 °F
Feels Like 68.9 °F
N
6.5
Wind Variable Wind from NW
Gusts 7.4 mph

Today
High -- | Low -- °F
--% Chance of Precip.
Yesterday
High -- | Low -- °F
Precip. -- in
Pressure 29.90 in
Visibility 10.0 miles
Clouds Scattered Clouds 8000 ft
Mostly Cloudy 25000 ft
Dew Point 63 °F
Humidity 81%
Rainfall 0.07 in
Snow Depth Not available.
5:15 AM 8:29 PM
Waxing Crescent, 44% visible
METAR KORD 192051Z 03010KT 10SM SCT080 BKN250 23/18 A2991 RMK AO2 LTG DSNT S SLP125 T02280183 55005 $
Pressure 29.90 in
Visibility 10.0 miles
Clouds Scattered Clouds 8000 ft
Mostly Cloudy 25000 ft
Dew Point 63 °F
Humidity 81%
Rainfall 0.07 in
Snow Depth Not available.
5:15 AM 8:29 PM
Waxing Crescent, 44% visible
METAR KORD 192051Z 03010KT 10SM SCT080 BKN250 23/18 A2991 RMK AO2 LTG DSNT S SLP125 T02280183 55005 $

Get Your Daily Forecast Email!

Thanks for signing up!

Be on the lookout for a verification email in your inbox.

You'll start receiving severe weather alerts in your inbox..

×

10-Day Weather Forecast

Almanac

Astronomy

Jun. 19, 2018 Rise Set
Actual Time
Civil Twilight
Nautical Twilight
Astronomical Twilight
Moon
Length of Visible Light
Length of Day
Tomorrow will be .
, % of the Moon is Illuminated

Today's Extremes

State Highs State Lows

Community

WunderPhotos

Category 6

Welcome to Category 6. This is the collective home for Weather Underground's featured writeups by Dr. Jeff Masters (right), Bob Henson (left), Chris Burt, and other regular contributors.

Nearby

Air Quality

  Air Quality AQ Index Pollutant
Not available.

Snow Depth

Station Depth Elevation

Earthquake Activity

City Distance Mag. Time & Date
Minimum magnitude displayed is 2.5.

Coastal Water Temperatures

Place Temperature

Stations

Nearby Weather Stations

Station Location Temp. Windchill Dew Point Humidity Wind Precip. Elev Updated Type
                   

Watches & Warnings

Flood Advisory
Issued: 9:43 AM CDT Jun. 19, 2018 – National Weather Service

The flood advisory continues for
the Des Plaines river near Des Plaines
* until Thursday evening.
* At 845 am Tuesday the stage was 10.7 feet.
* Action stage is 13.5 feet.
* Flood stage is 15.0 feet.
* Forecast... the river will rise to near 13.5 feet by early Thursday
morning.


Lat... Lon 4212 8784 4196 8780 4196 8790 4212 8794